createdAt,value
2018-03-01T00:02:19.049Z,-12.20
2018-03-01T00:04:45.615Z,-12.30
2018-03-01T00:07:12.094Z,-12.00
2018-03-01T00:09:38.614Z,-11.70
2018-03-01T00:12:05.110Z,-11.80
2018-03-01T00:14:31.601Z,-12.20
2018-03-01T00:16:58.110Z,-12.30
2018-03-01T00:19:24.659Z,-12.40
2018-03-01T00:21:51.981Z,-11.50
2018-03-01T00:24:18.475Z,-11.50
2018-03-01T00:26:45.030Z,-11.40
2018-03-01T00:29:12.283Z,-11.30
2018-03-01T00:31:38.799Z,-11.30
2018-03-01T00:34:05.421Z,-11.60
2018-03-01T00:36:31.946Z,-12.00
2018-03-01T00:38:58.445Z,-12.30
2018-03-01T00:41:24.965Z,-11.80
2018-03-01T00:43:52.182Z,-11.90
2018-03-01T00:46:18.694Z,-11.90
2018-03-01T00:48:45.203Z,-12.30
2018-03-01T00:51:11.773Z,-12.40
2018-03-01T00:53:38.289Z,-12.20
2018-03-01T00:56:04.799Z,-12.40
2018-03-01T00:58:32.053Z,-12.10
2018-03-01T01:00:58.587Z,-12.10
2018-03-01T01:03:25.122Z,-11.60
2018-03-01T01:05:51.623Z,-11.50
2018-03-01T01:08:18.693Z,-11.70
2018-03-01T01:10:45.937Z,-12.50
2018-03-01T01:13:12.434Z,-12.50
2018-03-01T01:15:38.958Z,-12.70
2018-03-01T01:18:05.486Z,-12.80
2018-03-01T01:20:31.989Z,-12.80
2018-03-01T01:22:58.497Z,-12.40
2018-03-01T01:25:24.993Z,-11.90
2018-03-01T01:27:51.532Z,-12.00
2018-03-01T01:30:18.024Z,-12.30
2018-03-01T01:32:45.276Z,-12.00
2018-03-01T01:35:11.819Z,-12.00
2018-03-01T01:37:38.319Z,-12.10
2018-03-01T01:40:04.837Z,-11.90
2018-03-01T01:42:31.354Z,-11.70
2018-03-01T01:44:57.855Z,-11.90
2018-03-01T01:47:25.145Z,-12.00
2018-03-01T01:49:51.650Z,-12.10
2018-03-01T01:52:18.926Z,-12.60
2018-03-01T01:54:45.454Z,-12.60
2018-03-01T01:57:11.982Z,-13.00
2018-03-01T01:59:38.503Z,-13.20
2018-03-01T02:02:04.977Z,-13.30
2018-03-01T02:04:31.490Z,-12.30
2018-03-01T02:06:58.729Z,-12.50
2018-03-01T02:09:25.993Z,-12.80
2018-03-01T02:11:52.542Z,-12.90
2018-03-01T02:14:19.044Z,-13.00
2018-03-01T02:16:45.564Z,-13.00
2018-03-01T02:19:12.071Z,-13.20
2018-03-01T02:21:38.643Z,-12.90
2018-03-01T02:24:05.203Z,-13.00
2018-03-01T02:26:31.757Z,-12.80
2018-03-01T02:28:58.263Z,-12.40
2018-03-01T02:31:24.754Z,-12.10
2018-03-01T02:33:51.318Z,-11.90
2018-03-01T02:36:29.820Z,-12.30
2018-03-01T02:38:56.321Z,-12.80
2018-03-01T02:41:22.814Z,-12.70
2018-03-01T02:43:49.349Z,-12.70
2018-03-01T02:46:15.882Z,-13.00
2018-03-01T02:48:42.386Z,-13.20
2018-03-01T02:51:08.858Z,-13.40
2018-03-01T02:53:35.348Z,-13.40
2018-03-01T02:56:01.859Z,-13.40
2018-03-01T02:58:28.377Z,-13.30
2018-03-01T03:00:54.932Z,-13.30
2018-03-01T03:03:21.421Z,-13.30
2018-03-01T03:05:47.935Z,-13.10
2018-03-01T03:08:14.477Z,-12.30
2018-03-01T03:10:41.018Z,-12.20
2018-03-01T03:13:08.302Z,-12.10
2018-03-01T03:15:36.165Z,-11.90
2018-03-01T03:18:03.455Z,-11.60
2018-03-01T03:20:29.944Z,-11.70
2018-03-01T03:22:56.442Z,-12.10
2018-03-01T03:25:22.982Z,-12.30
2018-03-01T03:27:49.498Z,-12.60
2018-03-01T03:30:15.991Z,-12.70
2018-03-01T03:32:43.283Z,-12.60
2018-03-01T03:35:09.802Z,-12.60
2018-03-01T03:37:36.296Z,-12.70
2018-03-01T03:40:02.838Z,-12.90
2018-03-01T03:42:30.102Z,-11.80
2018-03-01T03:44:56.605Z,-11.80
2018-03-01T03:47:23.122Z,-12.00
2018-03-01T03:49:49.670Z,-12.30
2018-03-01T03:52:16.890Z,-12.80
2018-03-01T03:54:43.730Z,-12.80
2018-03-01T03:57:10.239Z,-12.90
2018-03-01T03:59:36.716Z,-12.30
2018-03-01T04:02:03.205Z,-12.80
2018-03-01T04:04:29.765Z,-13.20
2018-03-01T04:06:56.345Z,-13.40
2018-03-01T04:09:22.862Z,-13.50
2018-03-01T04:11:49.391Z,-13.50
2018-03-01T04:14:15.978Z,-13.60
2018-03-01T04:16:42.486Z,-13.50
2018-03-01T04:19:09.016Z,-13.30
2018-03-01T04:21:35.524Z,-13.60
2018-03-01T04:24:02.067Z,-13.70
2018-03-01T04:26:28.583Z,-13.70
2018-03-01T04:28:55.855Z,-12.90
2018-03-01T04:31:22.421Z,-12.90
2018-03-01T04:33:48.928Z,-13.00
2018-03-01T04:36:15.427Z,-13.10
2018-03-01T04:38:41.967Z,-12.90
2018-03-01T04:41:08.481Z,-12.30
2018-03-01T04:43:34.985Z,-12.80
2018-03-01T04:46:01.492Z,-13.30
2018-03-01T04:48:28.073Z,-13.40
2018-03-01T04:50:54.571Z,-13.40
2018-03-01T04:53:21.092Z,-13.10
2018-03-01T04:55:48.323Z,-13.40
2018-03-01T04:58:14.838Z,-13.40
2018-03-01T05:00:41.331Z,-13.00
2018-03-01T05:03:07.969Z,-12.30
2018-03-01T05:05:34.465Z,-12.20
2018-03-01T05:08:00.947Z,-12.60
2018-03-01T05:10:28.434Z,-13.10
2018-03-01T05:12:54.958Z,-12.80
2018-03-01T05:15:21.547Z,-12.70
2018-03-01T05:17:48.071Z,-12.40
2018-03-01T05:20:14.554Z,-12.60
2018-03-01T05:22:41.105Z,-12.40
2018-03-01T05:25:07.594Z,-12.80
2018-03-01T05:27:34.834Z,-12.70
2018-03-01T05:30:02.070Z,-13.10
2018-03-01T05:32:28.584Z,-13.10
2018-03-01T05:34:55.152Z,-13.30
2018-03-01T05:37:22.424Z,-13.30
2018-03-01T05:39:49.684Z,-13.30
2018-03-01T05:42:16.216Z,-13.30
2018-03-01T05:44:42.734Z,-13.30
2018-03-01T05:47:10.011Z,-12.40
2018-03-01T05:49:36.531Z,-12.40
2018-03-01T05:52:03.082Z,-12.10
2018-03-01T05:54:29.649Z,-12.40
2018-03-01T05:56:56.137Z,-12.10
2018-03-01T05:59:22.766Z,-11.60
2018-03-01T06:01:50.060Z,-11.70
2018-03-01T06:04:16.579Z,-11.70
2018-03-01T06:06:43.089Z,-11.80
2018-03-01T06:09:10.377Z,-11.60
2018-03-01T06:11:36.932Z,-11.60
2018-03-01T06:14:03.445Z,-11.70
2018-03-01T06:16:29.985Z,-11.90
2018-03-01T06:18:56.504Z,-12.00
2018-03-01T06:21:23.012Z,-12.00
2018-03-01T06:23:49.534Z,-12.10
2018-03-01T06:26:16.025Z,-12.00
2018-03-01T06:28:42.514Z,-11.70
2018-03-01T06:31:09.838Z,-11.30
2018-03-01T06:33:36.405Z,-11.30
2018-03-01T06:36:02.909Z,-11.00
2018-03-01T06:38:30.153Z,-11.40
2018-03-01T06:40:56.672Z,-11.40
2018-03-01T06:43:23.159Z,-11.40
2018-03-01T06:45:49.676Z,-11.30
2018-03-01T06:48:16.239Z,-11.20
2018-03-01T06:50:42.741Z,-11.10
2018-03-01T06:53:09.274Z,-11.20
2018-03-01T06:55:35.766Z,-11.20
2018-03-01T06:58:02.278Z,-11.10
2018-03-01T07:00:28.816Z,-11.20
2018-03-01T07:02:56.107Z,-11.10
2018-03-01T07:05:22.567Z,-11.10
2018-03-01T07:07:49.075Z,-11.00
2018-03-01T07:10:15.632Z,-10.80
2018-03-01T07:12:42.125Z,-10.60
2018-03-01T07:15:08.644Z,-10.40
2018-03-01T07:17:35.888Z,-9.90
2018-03-01T07:20:02.363Z,-10.00
2018-03-01T07:22:28.858Z,-9.60
2018-03-01T07:24:55.355Z,-9.40
2018-03-01T07:27:21.857Z,-9.20
2018-03-01T07:29:48.370Z,-8.90
2018-03-01T07:32:15.615Z,-7.80
2018-03-01T07:34:42.126Z,-7.90
2018-03-01T07:37:09.403Z,-7.30
2018-03-01T07:39:35.900Z,-7.30
2018-03-01T07:42:02.423Z,-7.10
2018-03-01T07:44:28.941Z,-7.10
2018-03-01T07:46:55.418Z,-7.50
2018-03-01T07:49:21.910Z,-7.40
2018-03-01T07:51:48.389Z,-6.70
2018-03-01T07:54:15.629Z,-7.10
2018-03-01T07:56:42.146Z,-7.10
2018-03-01T07:59:08.642Z,-7.00
2018-03-01T08:01:35.940Z,-6.30
2018-03-01T08:04:02.421Z,-6.30
2018-03-01T08:06:28.922Z,-6.60
2018-03-01T08:08:55.439Z,-5.20
2018-03-01T08:11:21.990Z,-5.60
2018-03-01T08:13:48.498Z,-5.30
2018-03-01T08:16:14.966Z,-5.10
2018-03-01T08:18:41.475Z,-5.00
2018-03-01T08:21:07.957Z,-4.50
2018-03-01T08:23:34.462Z,-5.00
2018-03-01T08:26:01.004Z,-4.40
2018-03-01T08:28:27.522Z,-4.90
2018-03-01T08:30:54.058Z,-5.50
2018-03-01T08:33:20.599Z,-5.50
2018-03-01T08:35:47.087Z,-5.40
2018-03-01T08:38:13.576Z,-5.60
2018-03-01T08:40:40.096Z,-4.80
2018-03-01T08:43:06.642Z,-4.90
2018-03-01T08:45:33.134Z,-4.20
2018-03-01T08:47:59.671Z,-4.00
2018-03-01T08:50:26.198Z,-4.20
2018-03-01T08:52:52.732Z,-4.30
2018-03-01T08:55:19.236Z,-3.40
2018-03-01T08:57:45.730Z,-4.40
2018-03-01T09:00:12.210Z,-3.60
2018-03-01T09:02:38.669Z,-3.80
2018-03-01T09:05:05.982Z,-3.70
2018-03-01T09:07:32.483Z,-3.70
2018-03-01T09:09:58.968Z,-3.90
2018-03-01T09:12:25.508Z,-4.00
2018-03-01T09:14:51.993Z,-3.60
2018-03-01T09:17:18.488Z,-4.40
2018-03-01T09:19:46.461Z,-4.50
2018-03-01T09:22:12.960Z,-4.50
2018-03-01T09:24:39.490Z,-4.00
2018-03-01T09:27:06.027Z,-4.30
2018-03-01T09:29:32.510Z,-3.80
2018-03-01T09:31:58.990Z,-3.60
2018-03-01T09:34:25.613Z,-4.30
2018-03-01T09:36:52.104Z,-4.10
2018-03-01T09:39:18.598Z,-4.60
2018-03-01T09:41:45.078Z,-5.10
2018-03-01T09:44:11.622Z,-5.10
2018-03-01T09:46:38.088Z,-4.80
2018-03-01T09:49:04.603Z,-4.00
2018-03-01T09:51:31.180Z,-3.60
2018-03-01T09:53:57.678Z,-3.10
2018-03-01T09:56:24.216Z,-2.70
2018-03-01T09:58:51.467Z,-3.10
2018-03-01T10:01:18.751Z,-3.60
2018-03-01T10:03:45.236Z,-3.60
2018-03-01T10:06:11.701Z,-3.20
2018-03-01T10:08:38.204Z,-2.90
2018-03-01T10:11:04.687Z,-2.80
2018-03-01T10:13:31.232Z,-3.40
2018-03-01T10:15:57.737Z,-3.90
2018-03-01T10:18:24.231Z,-4.20
2018-03-01T10:20:50.715Z,-4.30
2018-03-01T10:23:17.291Z,-4.80
2018-03-01T10:25:43.770Z,-4.60
2018-03-01T10:28:10.269Z,-4.70
2018-03-01T10:30:36.755Z,-4.60
2018-03-01T10:33:03.267Z,-4.50
2018-03-01T10:35:29.786Z,-4.50
2018-03-01T10:37:56.274Z,-4.20
2018-03-01T10:40:22.840Z,-4.40
2018-03-01T10:42:49.418Z,-4.90
2018-03-01T10:45:15.914Z,-4.70
2018-03-01T10:47:42.389Z,-4.20
2018-03-01T10:50:09.630Z,-4.00
2018-03-01T10:52:36.871Z,-3.90
2018-03-01T10:55:03.357Z,-3.90
2018-03-01T10:57:29.893Z,-3.80
2018-03-01T10:59:56.445Z,-3.70
2018-03-01T11:02:22.889Z,-3.50
2018-03-01T11:04:49.379Z,-3.40
2018-03-01T11:07:16.112Z,-3.30
2018-03-01T11:09:43.392Z,-3.10
2018-03-01T11:12:09.907Z,-3.20
2018-03-01T11:14:36.429Z,-2.50
2018-03-01T11:17:03.681Z,-2.70
2018-03-01T11:19:30.985Z,-2.50
2018-03-01T11:21:57.488Z,-2.50
2018-03-01T11:24:24.007Z,-2.40
2018-03-01T11:26:51.274Z,-2.20
2018-03-01T11:29:17.814Z,-2.30
2018-03-01T11:31:44.322Z,-1.90
2018-03-01T11:34:11.565Z,-1.80
2018-03-01T11:36:38.063Z,-1.80
2018-03-01T11:39:04.584Z,-2.10
2018-03-01T11:41:31.112Z,-1.50
2018-03-01T11:43:57.668Z,-1.60
2018-03-01T11:46:24.229Z,-1.40
2018-03-01T11:48:50.711Z,-0.90
2018-03-01T11:51:17.202Z,-0.90
2018-03-01T11:53:43.693Z,-1.10
2018-03-01T11:56:10.236Z,-1.40
2018-03-01T11:58:36.734Z,-1.80
2018-03-01T12:01:03.973Z,-1.90
2018-03-01T12:03:30.466Z,-1.90
2018-03-01T12:05:56.971Z,-1.80
2018-03-01T12:08:23.492Z,-2.10
2018-03-01T12:10:50.745Z,-1.80
2018-03-01T12:13:17.985Z,-2.10
2018-03-01T12:15:44.510Z,-2.00
2018-03-01T12:18:11.960Z,-1.50
2018-03-01T12:20:38.493Z,-1.70
2018-03-01T12:23:04.966Z,-2.10
2018-03-01T12:25:32.208Z,-2.30
2018-03-01T12:27:59.471Z,-1.40
2018-03-01T12:30:26.705Z,-1.40
2018-03-01T12:32:53.282Z,-1.40
2018-03-01T12:35:19.762Z,-2.50
2018-03-01T12:37:46.276Z,-1.60
2018-03-01T12:40:12.755Z,-0.50
2018-03-01T12:42:40.021Z,0.20
2018-03-01T12:45:06.516Z,0.20
2018-03-01T12:47:33.091Z,-0.10
2018-03-01T12:49:59.765Z,-0.10
2018-03-01T12:52:26.281Z,-0.30
2018-03-01T12:54:52.911Z,-0.30
2018-03-01T12:57:19.478Z,-1.10
2018-03-01T12:59:46.049Z,-1.10
2018-03-01T13:02:12.615Z,-1.40
2018-03-01T13:04:40.654Z,-1.40
2018-03-01T13:07:07.178Z,-1.40
2018-03-01T13:09:33.714Z,-1.70
2018-03-01T13:12:00.259Z,-1.40
2018-03-01T13:14:26.824Z,-1.50
2018-03-01T13:16:54.164Z,-1.70
2018-03-01T13:19:20.692Z,-1.70
2018-03-01T13:21:47.259Z,-1.90
2018-03-01T13:24:13.808Z,-1.20
2018-03-01T13:26:40.379Z,-0.80
2018-03-01T13:29:06.934Z,-1.00
2018-03-01T13:31:36.248Z,-0.40
2018-03-01T13:34:08.707Z,-0.40
2018-03-01T13:36:35.267Z,-0.80
2018-03-01T13:39:01.862Z,-0.90
2018-03-01T13:41:28.405Z,-1.30
2018-03-01T13:43:54.935Z,-1.80
2018-03-01T13:46:22.325Z,-2.40
2018-03-01T13:48:49.635Z,-3.50
2018-03-01T13:51:16.160Z,-3.50
2018-03-01T13:53:42.707Z,-3.60
2018-03-01T13:56:09.256Z,-3.50
2018-03-01T13:58:35.832Z,-3.80
2018-03-01T14:01:03.094Z,-3.90
2018-03-01T14:03:29.634Z,-3.90
2018-03-01T14:09:01.225Z,-3.80
2018-03-01T14:11:27.778Z,-3.80
2018-03-01T14:13:54.340Z,-3.80
2018-03-01T14:16:20.883Z,-3.80
2018-03-01T14:18:53.326Z,-3.80
2018-03-01T14:21:28.793Z,-3.80
2018-03-01T14:26:58.363Z,-4.10
2018-03-01T14:29:39.740Z,-4.10
2018-03-01T14:32:07.059Z,-4.00
2018-03-01T14:34:33.588Z,-4.00
2018-03-01T14:37:00.070Z,-4.10
2018-03-01T14:39:26.550Z,-4.10
2018-03-01T14:41:53.058Z,-4.10
2018-03-01T14:44:19.586Z,-4.10
2018-03-01T14:46:46.195Z,-4.20
2018-03-01T14:49:13.492Z,-4.30
2018-03-01T14:51:40.045Z,-4.30
2018-03-01T14:54:06.516Z,-4.30
2018-03-01T14:56:33.036Z,-4.40
2018-03-01T14:58:59.512Z,-4.50
2018-03-01T15:01:25.986Z,-4.60
2018-03-01T15:03:52.506Z,-4.70
2018-03-01T15:06:19.031Z,-4.70
2018-03-01T15:08:46.397Z,-4.80
2018-03-01T15:11:12.906Z,-4.80
2018-03-01T15:13:39.436Z,-4.80
2018-03-01T15:16:06.697Z,-4.70
2018-03-01T15:18:33.205Z,-4.70
2018-03-01T15:20:59.733Z,-4.70
2018-03-01T15:23:26.219Z,-4.70
2018-03-01T15:25:52.707Z,-4.80
2018-03-01T15:28:19.953Z,-4.60
2018-03-01T15:30:46.451Z,-4.60
2018-03-01T15:33:12.953Z,-4.60
2018-03-01T15:35:39.445Z,-4.70
2018-03-01T15:38:05.960Z,-4.70
2018-03-01T15:40:32.467Z,-4.70
2018-03-01T15:42:58.964Z,-4.70
2018-03-01T15:45:25.471Z,-4.70
2018-03-01T15:47:51.975Z,-4.70
2018-03-01T15:50:18.538Z,-4.70
2018-03-01T15:52:45.752Z,-4.70
2018-03-01T15:55:12.286Z,-4.80
2018-03-01T15:57:38.788Z,-4.70
2018-03-01T16:00:05.300Z,-4.70
2018-03-01T16:02:31.881Z,-4.70
2018-03-01T16:04:59.124Z,-4.80
2018-03-01T16:07:25.598Z,-4.80
2018-03-01T16:09:52.106Z,-4.80
2018-03-01T16:12:19.348Z,-4.60
2018-03-01T16:14:46.608Z,-5.00
2018-03-01T16:17:13.907Z,-4.80
2018-03-01T16:19:40.472Z,-4.90
2018-03-01T16:22:06.945Z,-5.00
2018-03-01T16:24:33.494Z,-5.00
2018-03-01T16:27:00.007Z,-4.90
2018-03-01T16:29:26.518Z,-5.00
2018-03-01T16:31:53.103Z,-5.10
2018-03-01T16:34:19.580Z,-4.90
2018-03-01T16:36:46.864Z,-5.20
2018-03-01T16:39:14.097Z,-5.20
2018-03-01T16:41:40.592Z,-5.20
2018-03-01T16:44:07.149Z,-5.20
2018-03-01T16:46:33.741Z,-5.20
2018-03-01T16:49:00.974Z,-5.40
2018-03-01T16:51:28.219Z,-5.40
2018-03-01T16:53:55.504Z,-5.40
2018-03-01T16:56:22.073Z,-5.40
2018-03-01T16:58:48.565Z,-5.40
2018-03-01T17:01:15.062Z,-5.50
2018-03-01T17:03:41.570Z,-5.50
2018-03-01T17:06:08.065Z,-5.50
2018-03-01T17:08:34.584Z,-5.50
2018-03-01T17:11:01.123Z,-5.50
2018-03-01T17:13:28.399Z,-5.60
2018-03-01T17:15:54.926Z,-5.60
2018-03-01T17:18:21.423Z,-5.60
2018-03-01T17:20:47.999Z,-5.60
2018-03-01T17:23:14.510Z,-5.60
2018-03-01T17:25:41.078Z,-5.60
2018-03-01T17:28:07.598Z,-5.60
2018-03-01T17:30:34.833Z,-5.70
2018-03-01T17:33:02.111Z,-5.70
2018-03-01T17:35:28.627Z,-5.80
2018-03-01T17:37:55.851Z,-5.90
2018-03-01T17:40:22.354Z,-5.90
2018-03-01T17:42:48.854Z,-5.80
2018-03-01T17:45:16.113Z,-5.80
2018-03-01T17:47:42.669Z,-5.80
2018-03-01T17:50:09.240Z,-5.80
2018-03-01T17:52:35.771Z,-5.80
2018-03-01T17:55:02.996Z,-5.70
2018-03-01T17:57:29.531Z,-5.70
2018-03-01T17:59:56.021Z,-5.80
2018-03-01T18:02:22.537Z,-5.80
2018-03-01T18:04:49.078Z,-5.80
2018-03-01T18:07:15.556Z,-5.80
2018-03-01T18:09:42.795Z,-5.80
2018-03-01T18:12:10.070Z,-5.90
2018-03-01T18:14:36.617Z,-5.90
2018-03-01T18:17:03.142Z,-5.90
2018-03-01T18:19:29.661Z,-5.90
2018-03-01T18:21:56.297Z,-5.80
2018-03-01T18:24:23.535Z,-5.80
2018-03-01T18:26:50.155Z,-5.80
2018-03-01T18:29:16.666Z,-5.90
2018-03-01T18:31:43.167Z,-5.80
2018-03-01T18:34:09.672Z,-5.70
2018-03-01T18:36:36.356Z,-5.80
2018-03-01T18:39:07.640Z,-5.80
2018-03-01T18:41:34.218Z,-5.70
2018-03-01T18:44:00.798Z,-5.80
2018-03-01T18:46:27.300Z,-5.90
2018-03-01T18:48:53.822Z,-6.00
2018-03-01T18:51:21.325Z,-6.10
2018-03-01T18:53:47.997Z,-6.10
2018-03-01T18:56:14.522Z,-6.00
2018-03-01T18:58:41.026Z,-6.00
2018-03-01T19:01:07.557Z,-6.00
2018-03-01T19:03:34.229Z,-5.90
2018-03-01T19:06:01.044Z,-5.80
2018-03-01T19:08:27.828Z,-5.80
2018-03-01T19:10:54.340Z,-5.90
2018-03-01T19:13:20.943Z,-5.90
2018-03-01T19:15:47.444Z,-5.90
2018-03-01T19:18:14.022Z,-5.90
2018-03-01T19:20:40.547Z,-5.90
2018-03-01T19:23:07.177Z,-5.80
2018-03-01T19:25:33.756Z,-5.80
2018-03-01T19:28:00.237Z,-5.80
2018-03-01T19:30:26.861Z,-5.80
2018-03-01T19:32:53.549Z,-5.90
2018-03-01T19:35:20.307Z,-5.90
2018-03-01T19:37:46.971Z,-5.90
2018-03-01T19:40:13.690Z,-5.90
2018-03-01T19:42:40.188Z,-6.00
2018-03-01T19:45:06.727Z,-6.10
2018-03-01T19:47:33.454Z,-6.10
2018-03-01T19:50:00.149Z,-6.10
2018-03-01T19:52:26.699Z,-6.10
2018-03-01T19:54:53.269Z,-6.10
2018-03-01T19:57:19.767Z,-6.20
2018-03-01T19:59:46.295Z,-6.10
2018-03-01T20:02:12.785Z,-6.20
2018-03-01T20:04:39.288Z,-6.20
2018-03-01T20:07:05.814Z,-6.20
2018-03-01T20:09:32.541Z,-6.20
2018-03-01T20:11:59.103Z,-6.20
2018-03-01T20:14:25.728Z,-6.30
2018-03-01T20:16:52.238Z,-6.40
2018-03-01T20:19:18.964Z,-6.40
2018-03-01T20:21:45.768Z,-6.40
2018-03-01T20:24:13.235Z,-6.50
2018-03-01T20:26:40.712Z,-6.50
2018-03-01T20:29:07.489Z,-6.50
2018-03-01T20:31:34.071Z,-6.50
2018-03-01T20:34:00.853Z,-6.50
2018-03-01T20:36:27.511Z,-6.50
2018-03-01T20:38:54.027Z,-6.50
2018-03-01T20:41:21.269Z,-6.50
2018-03-01T20:43:47.927Z,-6.50
2018-03-01T20:46:14.423Z,-6.50
2018-03-01T20:48:41.706Z,-6.50
2018-03-01T20:51:08.258Z,-6.60
2018-03-01T20:53:35.587Z,-6.60
2018-03-01T20:56:02.100Z,-6.70
2018-03-01T20:58:30.010Z,-6.60
2018-03-01T21:00:56.614Z,-6.60
2018-03-01T21:03:23.126Z,-6.60
2018-03-01T21:05:50.423Z,-6.70
2018-03-01T21:08:16.927Z,-6.70
2018-03-01T21:10:43.994Z,-6.60
2018-03-01T21:13:10.511Z,-6.70
2018-03-01T21:15:37.069Z,-6.50
2018-03-01T21:18:03.659Z,-6.40
2018-03-01T21:20:30.136Z,-6.30
2018-03-01T21:22:56.641Z,-6.40
2018-03-01T21:25:23.964Z,-6.30
2018-03-01T21:27:50.474Z,-6.30
2018-03-01T21:30:17.028Z,-6.40
2018-03-01T21:32:43.577Z,-6.40
2018-03-01T21:35:10.135Z,-6.30
2018-03-01T21:37:36.623Z,-6.30
2018-03-01T21:40:03.119Z,-6.30
2018-03-01T21:42:31.582Z,-6.40
2018-03-01T21:44:58.833Z,-6.40
2018-03-01T21:47:25.439Z,-6.40
2018-03-01T21:49:51.986Z,-6.30
2018-03-01T21:52:18.487Z,-6.30
2018-03-01T21:54:45.020Z,-6.40
2018-03-01T21:57:11.504Z,-6.50
2018-03-01T21:59:38.752Z,-6.40
2018-03-01T22:02:05.395Z,-6.50
2018-03-01T22:04:31.940Z,-6.40
2018-03-01T22:06:59.222Z,-6.40
2018-03-01T22:09:26.330Z,-6.40
2018-03-01T22:11:52.901Z,-6.40
2018-03-01T22:14:19.406Z,-6.30
2018-03-01T22:16:45.978Z,-6.30
2018-03-01T22:19:12.539Z,-6.20
2018-03-01T22:21:39.090Z,-6.10
2018-03-01T22:24:05.582Z,-6.20
2018-03-01T22:26:32.241Z,-6.30
2018-03-01T22:28:58.763Z,-6.30
2018-03-01T22:31:25.301Z,-6.40
2018-03-01T22:33:51.875Z,-6.30
2018-03-01T22:36:19.158Z,-6.30
2018-03-01T22:38:46.418Z,-6.40
2018-03-01T22:41:13.655Z,-6.30
2018-03-01T22:43:40.182Z,-6.30
2018-03-01T22:46:06.674Z,-6.30
2018-03-01T22:48:33.173Z,-6.30
2018-03-01T22:51:00.420Z,-6.40
2018-03-01T22:53:27.697Z,-6.40
2018-03-01T22:55:54.265Z,-6.40
2018-03-01T22:58:20.834Z,-6.40
2018-03-01T23:00:53.288Z,-6.40
2018-03-01T23:03:20.531Z,-6.20
2018-03-01T23:05:47.067Z,-6.20
2018-03-01T23:08:13.621Z,-6.10
2018-03-01T23:10:40.120Z,-5.70
2018-03-01T23:13:06.650Z,-5.80
2018-03-01T23:15:33.170Z,-5.80
2018-03-01T23:17:59.678Z,-5.90
2018-03-01T23:20:26.926Z,-6.00
2018-03-01T23:22:53.431Z,-6.00
2018-03-01T23:25:19.944Z,-6.10
2018-03-01T23:27:46.526Z,-6.20
2018-03-01T23:30:13.018Z,-6.30
2018-03-01T23:32:39.551Z,-6.30
2018-03-01T23:35:06.056Z,-6.40
2018-03-01T23:37:32.559Z,-6.40
2018-03-01T23:39:59.043Z,-6.30
2018-03-01T23:42:25.557Z,-6.30
2018-03-01T23:44:52.057Z,-6.30
2018-03-01T23:47:18.539Z,-6.30
2018-03-01T23:49:45.826Z,-6.50
2018-03-01T23:52:12.338Z,-6.50
2018-03-01T23:54:38.850Z,-6.50
2018-03-01T23:57:05.375Z,-6.50
2018-03-01T23:59:31.896Z,-6.40
